OKBK/KWI METAR and TAF weather

Enter ICAO airport designator
Station Type Date Time Source
OKBK METAR 2021/03/05 06:00 UTC NOAA

OKBK 050600Z 34017KT 9999 FEW040 SCT080 17/03 Q1019 NOSIG


Station Type Date Time Source
OKBK Decoded METAR 2021/03/05 06:00 UTC NOAA

Kuwait Internationalairport, Kuwait (OKBK) 29-13N 047-59E 55M
Mar 05, 2021 - 01:00 AM EST / 2021.03.05 0600 UTC
Wind: from the NNW (340 degrees) at 20 MPH (17 KT):0
Visibility: greater than 7 mile(s):0
Sky conditions: partly cloudy
Temperature: 62 F (17 C)
Dew Point: 37 F (3 C)
Relative Humidity: 39%
Pressure (altimeter): 30.09 in. Hg (1019 hPa)
ob: OKBK 050600Z 34017KT 9999 FEW040 SCT080 17/03 Q1019 NOSIG
cycle: 6

Station Type Date Time Source
OKBK TAF 2021/03/05 06:51 UTC NOAA

TAF TAF OKBK 050445Z 0506/0612 34015G30KT 7000 NSC
TEMPO 0506/0512 4000 RA/BLDU FEW030CB BKN080

Example: see airport list